createdAt,value
2022-11-28T00:11:31.213Z,21.56
2022-11-28T00:26:23.490Z,20.14
2022-11-28T00:41:17.115Z,23.11
2022-11-28T00:56:08.083Z,24.94
2022-11-28T01:10:59.314Z,24.67
2022-11-28T01:25:49.079Z,24.32
2022-11-28T01:40:39.172Z,26.10
2022-11-28T01:55:29.710Z,22.39
2022-11-28T02:10:22.071Z,24.07
2022-11-28T02:25:36.411Z,23.06
2022-11-28T02:40:54.994Z,24.14
2022-11-28T02:55:50.833Z,22.63
2022-11-28T03:11:06.964Z,24.00
2022-11-28T03:25:57.433Z,21.57
2022-11-28T03:40:51.055Z,23.23
2022-11-28T03:56:02.057Z,24.13
2022-11-28T04:10:57.112Z,22.81
2022-11-28T04:25:53.138Z,21.70
2022-11-28T04:40:47.914Z,18.84
2022-11-28T04:55:38.848Z,19.80
2022-11-28T05:10:29.495Z,19.34
2022-11-28T05:25:21.051Z,19.16
2022-11-28T05:40:12.155Z,17.27
2022-11-28T05:55:03.454Z,16.91
2022-11-28T06:09:54.993Z,17.58
2022-11-28T06:24:46.987Z,16.53
2022-11-28T06:39:38.094Z,14.26
2022-11-28T06:54:28.802Z,14.91
2022-11-28T07:24:22.616Z,14.17
2022-11-28T07:39:14.123Z,13.87
2022-11-28T07:54:06.676Z,13.42
2022-11-28T08:08:55.291Z,13.53
2022-11-28T08:23:46.038Z,11.34
2022-11-28T08:38:39.233Z,11.81
2022-11-28T08:53:29.040Z,10.08
2022-11-28T09:08:20.019Z,12.16
2022-11-28T09:23:11.106Z,12.04
2022-11-28T09:38:01.733Z,14.70
2022-11-28T09:53:04.070Z,13.23
2022-11-28T10:08:05.307Z,14.64
2022-11-28T10:23:13.707Z,15.16
2022-11-28T10:38:12.621Z,9.82
2022-11-28T10:53:43.990Z,11.00
2022-11-28T11:08:41.872Z,10.58
2022-11-28T11:23:38.088Z,10.87
2022-11-28T11:38:32.362Z,9.58
2022-11-28T11:53:24.889Z,10.57
2022-11-28T12:08:15.616Z,10.82
2022-11-28T12:23:28.116Z,11.36
2022-11-28T12:38:36.789Z,12.51
2022-11-28T12:53:41.398Z,10.94
2022-11-28T13:08:46.531Z,7.82
2022-11-28T13:23:42.579Z,9.11
2022-11-28T13:39:07.890Z,9.30
2022-11-28T13:53:41.566Z,10.77
2022-11-28T14:08:38.728Z,13.19
2022-11-28T14:23:42.142Z,10.88
2022-11-28T14:38:37.418Z,13.33
2022-11-28T14:53:34.321Z,17.60
2022-11-28T15:23:40.025Z,10.46
2022-11-28T15:38:30.533Z,10.47
2022-11-28T15:53:21.849Z,12.11
2022-11-28T16:08:35.660Z,13.94
2022-11-28T16:23:33.419Z,12.98
2022-11-28T16:38:27.359Z,12.46
2022-11-28T17:08:54.526Z,13.70
2022-11-28T17:23:44.782Z,17.34
2022-11-28T17:38:36.037Z,14.83
2022-11-28T17:53:27.372Z,14.53
2022-11-28T18:08:21.905Z,17.11
2022-11-28T18:23:09.608Z,20.40
2022-11-28T18:38:00.832Z,21.09
2022-11-28T18:52:52.002Z,24.72
2022-11-28T19:07:43.134Z,20.09
2022-11-28T19:22:32.780Z,21.26
2022-11-28T19:37:23.166Z,20.97
2022-11-28T19:52:14.065Z,24.38
2022-11-28T20:07:05.415Z,24.34
2022-11-28T20:21:56.422Z,23.90
2022-11-28T20:36:47.247Z,22.47
2022-11-28T20:51:38.895Z,26.60
2022-11-28T21:06:30.524Z,23.17
2022-11-28T21:21:26.717Z,25.30
2022-11-28T21:36:20.885Z,24.87
2022-11-28T21:51:15.226Z,24.82
2022-11-28T22:06:08.643Z,25.42
2022-11-28T22:21:00.887Z,27.87
2022-11-28T22:35:51.165Z,26.82
2022-11-28T22:50:41.998Z,31.80
2022-11-28T23:05:32.925Z,34.06
2022-11-28T23:20:23.806Z,32.98
2022-11-28T23:35:14.611Z,24.98
2022-11-28T23:50:05.770Z,24.50
